createdAt,value
2022-11-16T00:00:12.421Z,10.89
2022-11-16T00:02:38.673Z,10.88
2022-11-16T00:05:04.832Z,10.91
2022-11-16T00:07:30.981Z,10.93
2022-11-16T00:09:57.172Z,10.96
2022-11-16T00:12:23.314Z,10.94
2022-11-16T00:14:49.432Z,10.92
2022-11-16T00:17:15.583Z,10.87
2022-11-16T00:19:41.738Z,10.85
2022-11-16T00:22:07.865Z,10.86
2022-11-16T00:24:33.988Z,10.86
2022-11-16T00:27:00.143Z,10.80
2022-11-16T00:29:26.263Z,10.76
2022-11-16T00:31:52.421Z,10.74
2022-11-16T00:34:18.602Z,10.72
2022-11-16T00:36:44.739Z,10.74
2022-11-16T00:39:10.847Z,10.74
2022-11-16T00:41:36.984Z,10.70
2022-11-16T00:44:03.112Z,10.72
2022-11-16T00:46:29.222Z,10.74
2022-11-16T00:48:55.356Z,10.74
2022-11-16T00:51:21.490Z,10.72
2022-11-16T00:53:47.616Z,10.72
2022-11-16T00:56:13.765Z,10.70
2022-11-16T00:58:39.906Z,10.70
2022-11-16T01:01:06.037Z,10.69
2022-11-16T01:03:32.218Z,10.73
2022-11-16T01:05:58.340Z,10.70
2022-11-16T01:08:24.479Z,10.66
2022-11-16T01:10:50.629Z,10.70
2022-11-16T01:13:16.785Z,10.70
2022-11-16T01:15:42.925Z,10.66
2022-11-16T01:18:09.061Z,10.70
2022-11-16T01:20:35.174Z,10.65
2022-11-16T01:23:01.317Z,10.65
2022-11-16T01:25:27.455Z,10.66
2022-11-16T01:27:53.575Z,10.64
2022-11-16T01:30:19.690Z,10.68
2022-11-16T01:32:45.821Z,10.56
2022-11-16T01:35:11.944Z,10.65
2022-11-16T01:37:38.097Z,10.62
2022-11-16T01:40:04.220Z,10.62
2022-11-16T01:42:30.361Z,10.65
2022-11-16T01:44:56.511Z,10.62
2022-11-16T01:47:22.625Z,10.62
2022-11-16T01:49:48.793Z,10.65
2022-11-16T01:52:14.924Z,10.63
2022-11-16T01:54:41.076Z,10.64
2022-11-16T01:57:07.213Z,10.66
2022-11-16T01:59:33.338Z,10.66
2022-11-16T02:01:59.477Z,10.66
2022-11-16T02:04:25.609Z,10.70
2022-11-16T02:06:51.778Z,10.69
2022-11-16T02:09:17.920Z,10.69
2022-11-16T02:11:44.071Z,10.66
2022-11-16T02:14:10.218Z,10.67
2022-11-16T02:16:36.361Z,10.71
2022-11-16T02:19:02.462Z,10.70
2022-11-16T02:21:28.591Z,10.65
2022-11-16T02:23:54.760Z,10.65
2022-11-16T02:26:20.897Z,10.63
2022-11-16T02:28:47.069Z,10.69
2022-11-16T02:31:13.195Z,10.68
2022-11-16T02:33:39.320Z,10.65
2022-11-16T02:36:05.455Z,10.61
2022-11-16T02:38:31.873Z,10.62
2022-11-16T02:40:58.217Z,10.69
2022-11-16T02:43:24.333Z,10.67
2022-11-16T02:45:50.489Z,10.62
2022-11-16T02:48:16.628Z,10.59
2022-11-16T02:50:42.769Z,10.65
2022-11-16T02:53:08.887Z,10.64
2022-11-16T02:55:35.004Z,10.63
2022-11-16T02:58:01.169Z,10.62
2022-11-16T03:00:27.287Z,10.65
2022-11-16T03:02:53.438Z,10.65
2022-11-16T03:05:19.559Z,10.60
2022-11-16T03:07:45.708Z,10.63
2022-11-16T03:10:13.932Z,10.66
2022-11-16T03:12:40.065Z,10.62
2022-11-16T03:15:06.410Z,10.58
2022-11-16T03:17:32.562Z,10.55
2022-11-16T03:19:58.687Z,10.53
2022-11-16T03:22:25.100Z,10.50
2022-11-16T03:24:51.212Z,10.50
2022-11-16T03:27:17.332Z,10.45
2022-11-16T03:29:43.450Z,10.45
2022-11-16T03:32:09.592Z,10.45
2022-11-16T03:34:35.738Z,10.44
2022-11-16T03:37:01.874Z,10.45
2022-11-16T03:39:27.990Z,10.50
2022-11-16T03:41:54.147Z,10.46
2022-11-16T03:44:20.257Z,10.46
2022-11-16T03:46:46.381Z,10.47
2022-11-16T03:49:12.550Z,10.48
2022-11-16T03:51:38.679Z,10.50
2022-11-16T03:54:04.797Z,10.53
2022-11-16T03:56:30.965Z,10.59
2022-11-16T03:58:57.087Z,10.54
2022-11-16T04:01:23.275Z,10.57
2022-11-16T04:03:49.438Z,10.58
2022-11-16T04:06:15.686Z,10.62
2022-11-16T04:08:41.811Z,10.59
2022-11-16T04:11:07.975Z,10.55
2022-11-16T04:13:34.117Z,10.61
2022-11-16T04:16:00.236Z,10.65
2022-11-16T04:18:26.357Z,10.62
2022-11-16T04:20:52.496Z,10.56
2022-11-16T04:23:18.636Z,10.61
2022-11-16T04:25:44.782Z,10.63
2022-11-16T04:28:10.882Z,10.61
2022-11-16T04:30:36.998Z,10.65
2022-11-16T04:33:03.156Z,10.67
2022-11-16T04:35:29.267Z,10.64
2022-11-16T04:37:55.411Z,10.62
2022-11-16T04:40:21.751Z,10.65
2022-11-16T04:42:47.901Z,10.68
2022-11-16T04:45:14.014Z,10.67
2022-11-16T04:47:40.154Z,10.70
2022-11-16T04:50:06.316Z,10.73
2022-11-16T04:52:32.461Z,10.69
2022-11-16T04:54:58.585Z,10.72
2022-11-16T04:57:24.706Z,10.74
2022-11-16T04:59:50.865Z,10.69
2022-11-16T05:02:16.976Z,10.67
2022-11-16T05:04:43.104Z,10.66
2022-11-16T05:07:09.237Z,10.73
2022-11-16T05:09:35.403Z,10.75
2022-11-16T05:12:01.563Z,10.68
2022-11-16T05:14:27.684Z,10.68
2022-11-16T05:16:53.797Z,10.73
2022-11-16T05:19:19.922Z,10.76
2022-11-16T05:21:46.045Z,10.68
2022-11-16T05:24:12.201Z,10.61
2022-11-16T05:26:38.315Z,10.59
2022-11-16T05:29:04.460Z,10.59
2022-11-16T05:31:30.581Z,10.59
2022-11-16T05:33:56.731Z,10.60
2022-11-16T05:36:22.865Z,10.58
2022-11-16T05:38:52.645Z,10.61
2022-11-16T05:41:21.291Z,10.68
2022-11-16T05:43:47.413Z,10.66
2022-11-16T05:46:13.535Z,10.63
2022-11-16T05:48:39.698Z,10.63
2022-11-16T05:51:05.836Z,10.60
2022-11-16T05:53:31.980Z,10.59
2022-11-16T05:55:58.172Z,10.61
2022-11-16T05:58:24.333Z,10.63
2022-11-16T06:00:50.455Z,10.62
2022-11-16T06:03:16.701Z,10.60
2022-11-16T06:05:42.818Z,10.57
2022-11-16T06:08:08.940Z,10.55
2022-11-16T06:10:35.126Z,10.51
2022-11-16T06:13:01.252Z,10.56
2022-11-16T06:15:27.371Z,10.52
2022-11-16T06:17:53.529Z,10.61
2022-11-16T06:20:19.658Z,10.57
2022-11-16T06:22:45.775Z,10.54
2022-11-16T06:25:11.918Z,10.53
2022-11-16T06:27:38.039Z,10.50
2022-11-16T06:30:04.208Z,10.44
2022-11-16T06:32:30.328Z,10.37
2022-11-16T06:34:56.446Z,10.27
2022-11-16T06:37:22.578Z,10.33
2022-11-16T06:39:48.754Z,10.25
2022-11-16T06:42:14.874Z,10.26
2022-11-16T06:44:41.024Z,10.33
2022-11-16T06:47:07.150Z,10.39
2022-11-16T06:49:33.300Z,10.31
2022-11-16T06:51:59.436Z,10.30
2022-11-16T06:54:25.557Z,10.28
2022-11-16T06:56:51.697Z,10.22
2022-11-16T06:59:17.819Z,10.09
2022-11-16T07:01:44.035Z,10.07
2022-11-16T07:04:10.204Z,10.14
2022-11-16T07:06:36.357Z,10.23
2022-11-16T07:09:02.501Z,10.26
2022-11-16T07:11:28.625Z,10.35
2022-11-16T07:13:54.758Z,10.29
2022-11-16T07:16:20.888Z,10.18
2022-11-16T07:18:47.036Z,10.17
2022-11-16T07:21:13.189Z,10.11
2022-11-16T07:23:39.302Z,10.09
2022-11-16T07:26:05.458Z,10.10
2022-11-16T07:28:31.856Z,10.14
2022-11-16T07:30:58.143Z,10.15
2022-11-16T07:33:24.297Z,10.24
2022-11-16T07:35:50.452Z,10.39
2022-11-16T07:38:18.121Z,10.49
2022-11-16T07:40:44.498Z,10.62
2022-11-16T07:43:10.642Z,10.73
2022-11-16T07:45:36.766Z,10.77
2022-11-16T07:48:02.882Z,10.87
2022-11-16T07:50:29.046Z,10.89
2022-11-16T07:52:55.219Z,11.03
2022-11-16T07:55:21.350Z,11.03
2022-11-16T07:57:52.949Z,11.04
2022-11-16T08:00:19.508Z,11.18
2022-11-16T08:02:45.724Z,11.33
2022-11-16T08:05:11.889Z,11.38
2022-11-16T08:07:38.098Z,11.37
2022-11-16T08:10:04.383Z,11.40
2022-11-16T08:12:30.566Z,11.45
2022-11-16T08:14:56.692Z,11.49
2022-11-16T08:17:22.826Z,11.62
2022-11-16T08:19:48.995Z,12.16
2022-11-16T08:22:15.143Z,12.48
2022-11-16T08:24:41.281Z,12.53
2022-11-16T08:27:07.430Z,12.39
2022-11-16T08:29:33.548Z,12.26
2022-11-16T08:31:59.676Z,12.25
2022-11-16T08:37:09.525Z,11.85
2022-11-16T08:39:35.670Z,11.97
2022-11-16T08:42:01.802Z,11.97
2022-11-16T08:44:27.959Z,11.92
2022-11-16T08:46:54.081Z,12.18
2022-11-16T08:49:20.214Z,12.74
2022-11-16T08:51:46.382Z,13.11
2022-11-16T08:54:12.530Z,13.19
2022-11-16T08:56:38.682Z,13.17
2022-11-16T08:59:04.799Z,13.24
2022-11-16T09:01:30.979Z,13.65
2022-11-16T09:03:57.123Z,14.10
2022-11-16T09:06:23.242Z,14.34
2022-11-16T09:08:49.379Z,15.34
2022-11-16T09:11:15.505Z,15.08
2022-11-16T09:13:41.673Z,14.09
2022-11-16T09:16:07.815Z,13.68
2022-11-16T09:18:34.285Z,13.23
2022-11-16T09:21:00.771Z,13.08
2022-11-16T09:23:26.891Z,13.19
2022-11-16T09:25:53.025Z,13.04
2022-11-16T09:28:19.155Z,12.80
2022-11-16T09:30:45.290Z,12.91
2022-11-16T09:33:11.422Z,13.04
2022-11-16T09:35:37.570Z,13.13
2022-11-16T09:38:03.691Z,13.08
2022-11-16T09:40:29.862Z,13.40
2022-11-16T09:42:55.994Z,13.74
2022-11-16T09:45:22.168Z,14.02
2022-11-16T09:47:48.282Z,14.28
2022-11-16T09:50:14.409Z,14.56
2022-11-16T09:52:40.569Z,14.40
2022-11-16T09:55:07.542Z,14.11
2022-11-16T09:57:35.013Z,14.16
2022-11-16T10:00:01.191Z,14.03
2022-11-16T10:02:27.367Z,13.90
2022-11-16T10:04:57.981Z,13.97
2022-11-16T10:07:24.721Z,14.00
2022-11-16T10:09:50.894Z,14.08
2022-11-16T10:12:17.003Z,13.99
2022-11-16T10:14:43.133Z,13.91
2022-11-16T10:17:09.284Z,13.72
2022-11-16T10:19:35.441Z,13.57
2022-11-16T10:22:01.571Z,13.40
2022-11-16T10:24:27.741Z,13.48
2022-11-16T10:26:53.866Z,13.60
2022-11-16T10:29:19.984Z,13.58
2022-11-16T10:31:46.147Z,13.62
2022-11-16T10:34:12.267Z,14.08
2022-11-16T10:36:38.404Z,14.47
2022-11-16T10:39:04.539Z,15.39
2022-11-16T10:41:30.695Z,15.49
2022-11-16T10:43:56.816Z,16.36
2022-11-16T10:46:23.003Z,16.52
2022-11-16T10:48:49.141Z,16.99
2022-11-16T10:51:15.262Z,17.13
2022-11-16T10:53:41.379Z,17.23
2022-11-16T10:56:07.520Z,17.38
2022-11-16T10:58:33.640Z,17.42
2022-11-16T11:00:59.784Z,18.11
2022-11-16T11:03:25.969Z,18.66
2022-11-16T11:05:52.091Z,18.90
2022-11-16T11:08:18.239Z,18.50
2022-11-16T11:10:44.383Z,17.40
2022-11-16T11:13:10.511Z,16.03
2022-11-16T11:15:36.636Z,15.09
2022-11-16T11:18:02.789Z,14.85
2022-11-16T11:20:28.928Z,14.68
2022-11-16T11:22:55.040Z,14.41
2022-11-16T11:25:21.204Z,14.18
2022-11-16T11:27:47.318Z,13.88
2022-11-16T11:30:13.435Z,13.68
2022-11-16T11:32:39.593Z,13.51
2022-11-16T11:35:05.719Z,13.49
2022-11-16T11:37:31.832Z,13.77
2022-11-16T11:39:57.996Z,13.94
2022-11-16T11:42:24.121Z,14.20
2022-11-16T11:44:50.266Z,14.31
2022-11-16T11:47:55.750Z,14.29
2022-11-16T11:50:02.534Z,14.31
2022-11-16T11:52:28.680Z,14.10
2022-11-16T11:54:54.824Z,13.94
2022-11-16T11:57:20.949Z,14.11
2022-11-16T11:59:47.089Z,14.01
2022-11-16T12:02:13.227Z,14.07
2022-11-16T12:04:39.343Z,14.16
2022-11-16T12:07:05.539Z,14.00
2022-11-16T12:09:31.702Z,13.87
2022-11-16T12:11:57.844Z,13.78
2022-11-16T12:14:24.020Z,13.85
2022-11-16T12:16:50.135Z,13.98
2022-11-16T12:19:16.253Z,14.03
2022-11-16T12:21:42.475Z,14.16
2022-11-16T12:24:08.622Z,14.28
2022-11-16T12:26:34.780Z,14.49
2022-11-16T12:29:00.919Z,14.54
2022-11-16T12:31:27.062Z,14.62
2022-11-16T12:33:53.182Z,14.73
2022-11-16T12:36:19.308Z,14.66
2022-11-16T12:38:45.458Z,14.36
2022-11-16T12:41:11.593Z,13.93
2022-11-16T12:43:37.736Z,13.97
2022-11-16T12:46:03.874Z,13.98
2022-11-16T12:48:30.002Z,13.99
2022-11-16T12:50:56.125Z,14.04
2022-11-16T12:53:22.274Z,14.10
2022-11-16T12:55:48.411Z,14.24
2022-11-16T12:58:14.520Z,14.28
2022-11-16T13:00:40.707Z,14.29
2022-11-16T13:03:06.871Z,14.27
2022-11-16T13:05:33.005Z,14.42
2022-11-16T13:07:59.197Z,14.77
2022-11-16T13:10:25.327Z,15.01
2022-11-16T13:12:55.794Z,15.35
2022-11-16T13:15:30.093Z,15.37
2022-11-16T13:17:56.224Z,15.66
2022-11-16T13:20:22.375Z,15.66
2022-11-16T13:22:48.501Z,15.57
2022-11-16T13:25:14.651Z,15.41
2022-11-16T13:27:40.824Z,15.29
2022-11-16T13:30:06.968Z,15.31
2022-11-16T13:32:33.113Z,15.26
2022-11-16T13:34:59.237Z,15.33
2022-11-16T13:37:25.410Z,15.15
2022-11-16T13:39:51.578Z,15.12
2022-11-16T13:42:17.744Z,15.01
2022-11-16T13:44:48.763Z,15.05
2022-11-16T13:47:17.465Z,15.18
2022-11-16T13:49:43.588Z,15.13
2022-11-16T13:52:35.638Z,15.18
2022-11-16T13:54:56.440Z,14.80
2022-11-16T13:57:22.828Z,14.53
2022-11-16T13:59:48.954Z,14.35
2022-11-16T14:02:15.112Z,14.13
2022-11-16T14:04:41.229Z,14.02
2022-11-16T14:07:07.370Z,13.83
2022-11-16T14:09:33.542Z,13.80
2022-11-16T14:11:59.698Z,13.78
2022-11-16T14:14:25.825Z,13.83
2022-11-16T14:16:51.969Z,13.96
2022-11-16T14:19:18.111Z,14.06
2022-11-16T14:21:44.242Z,14.02
2022-11-16T14:24:10.392Z,14.01
2022-11-16T14:26:36.508Z,13.84
2022-11-16T14:29:02.614Z,13.76
2022-11-16T14:31:28.770Z,13.75
2022-11-16T14:33:55.375Z,13.64
2022-11-16T14:36:21.548Z,13.52
2022-11-16T14:38:47.666Z,13.54
2022-11-16T14:41:13.801Z,13.54
2022-11-16T14:43:39.920Z,13.55
2022-11-16T14:46:06.096Z,13.42
2022-11-16T14:48:32.208Z,13.52
2022-11-16T14:50:58.345Z,13.54
2022-11-16T14:53:24.504Z,13.72
2022-11-16T14:55:50.637Z,13.67
2022-11-16T14:58:16.820Z,13.80
2022-11-16T15:00:42.953Z,13.85
2022-11-16T15:03:09.128Z,13.98
2022-11-16T15:05:35.252Z,13.95
2022-11-16T15:08:01.409Z,13.92
2022-11-16T15:10:27.564Z,13.92
2022-11-16T15:12:53.681Z,13.85
2022-11-16T15:15:19.834Z,13.80
2022-11-16T15:17:45.986Z,13.56
2022-11-16T15:20:12.123Z,13.29
2022-11-16T15:22:38.270Z,12.95
2022-11-16T15:25:04.447Z,12.64
2022-11-16T15:27:30.613Z,12.33
2022-11-16T15:29:56.749Z,12.01
2022-11-16T15:32:22.869Z,11.74
2022-11-16T15:34:49.035Z,11.50
2022-11-16T15:37:15.179Z,11.29
2022-11-16T15:39:41.338Z,11.15
2022-11-16T15:42:07.554Z,10.99
2022-11-16T15:44:33.727Z,10.82
2022-11-16T15:46:59.873Z,10.70
2022-11-16T15:49:26.031Z,10.70
2022-11-16T15:51:52.215Z,10.76
2022-11-16T15:54:18.341Z,10.74
2022-11-16T15:56:44.447Z,10.68
2022-11-16T15:59:10.601Z,10.54
2022-11-16T16:01:36.858Z,10.43
2022-11-16T16:04:04.195Z,10.33
2022-11-16T16:06:30.361Z,10.28
2022-11-16T16:08:56.495Z,10.28
2022-11-16T16:11:26.598Z,10.33
2022-11-16T16:13:53.147Z,10.33
2022-11-16T16:16:19.269Z,10.35
2022-11-16T16:18:45.398Z,10.39
2022-11-16T16:21:11.543Z,10.39
2022-11-16T16:23:37.673Z,10.41
2022-11-16T16:26:03.817Z,10.40
2022-11-16T16:28:29.951Z,10.33
2022-11-16T16:30:56.068Z,10.31
2022-11-16T16:33:22.243Z,10.25
2022-11-16T16:35:48.361Z,10.27
2022-11-16T16:38:14.510Z,10.33
2022-11-16T16:40:40.653Z,10.30
2022-11-16T16:43:06.770Z,10.31
2022-11-16T16:45:32.902Z,10.38
2022-11-16T16:47:59.107Z,10.43
2022-11-16T16:50:25.264Z,10.42
2022-11-16T16:52:51.387Z,10.40
2022-11-16T16:55:17.514Z,10.40
2022-11-16T16:57:43.642Z,10.40
2022-11-16T17:00:09.768Z,10.42
2022-11-16T17:02:35.941Z,10.44
2022-11-16T17:05:02.076Z,10.46
2022-11-16T17:07:28.248Z,10.49
2022-11-16T17:09:54.478Z,10.52
2022-11-16T17:12:20.589Z,10.62
2022-11-16T17:14:46.712Z,10.66
2022-11-16T17:17:12.873Z,10.71
2022-11-16T17:19:38.990Z,10.65
2022-11-16T17:22:05.135Z,10.64
2022-11-16T17:24:31.256Z,10.63
2022-11-16T17:26:57.430Z,10.70
2022-11-16T17:29:23.594Z,10.70
2022-11-16T17:31:49.713Z,10.75
2022-11-16T17:34:15.838Z,10.85
2022-11-16T17:36:41.995Z,10.89
2022-11-16T17:39:08.128Z,10.95
2022-11-16T17:41:34.262Z,11.01
2022-11-16T17:44:00.379Z,11.04
2022-11-16T17:46:26.491Z,11.07
2022-11-16T17:48:52.641Z,11.09
2022-11-16T17:51:18.780Z,11.16
2022-11-16T17:53:44.893Z,11.17
2022-11-16T17:56:11.080Z,11.23
2022-11-16T17:58:37.194Z,11.18
2022-11-16T18:01:03.376Z,11.15
2022-11-16T18:03:29.565Z,11.22
2022-11-16T18:05:55.684Z,11.28
2022-11-16T18:08:21.809Z,11.24
2022-11-16T18:10:47.953Z,11.21
2022-11-16T18:13:14.085Z,11.16
2022-11-16T18:15:42.520Z,11.09
2022-11-16T18:18:08.889Z,11.06
2022-11-16T18:20:35.099Z,11.08
2022-11-16T18:23:01.240Z,11.14
2022-11-16T18:25:27.383Z,11.23
2022-11-16T18:27:53.549Z,11.26
2022-11-16T18:30:19.690Z,11.32
2022-11-16T18:32:45.797Z,11.37
2022-11-16T18:35:11.926Z,11.42
2022-11-16T18:37:38.067Z,11.41
2022-11-16T18:40:04.221Z,11.41
2022-11-16T18:42:30.352Z,11.42
2022-11-16T18:44:56.509Z,11.44
2022-11-16T18:47:22.670Z,11.43
2022-11-16T18:49:48.821Z,11.37
2022-11-16T18:52:14.957Z,11.37
2022-11-16T18:54:41.081Z,11.57
2022-11-16T18:57:07.216Z,11.54
2022-11-16T18:59:33.321Z,11.54
2022-11-16T19:01:59.459Z,11.52
2022-11-16T19:04:25.592Z,11.49
2022-11-16T19:06:51.742Z,11.48
2022-11-16T19:09:17.917Z,11.52
2022-11-16T19:11:44.051Z,11.46
2022-11-16T19:14:10.176Z,11.45
2022-11-16T19:16:36.319Z,11.46
2022-11-16T19:19:02.436Z,11.47
2022-11-16T19:21:28.573Z,11.40
2022-11-16T19:23:54.692Z,11.40
2022-11-16T19:26:20.810Z,11.40
2022-11-16T19:28:46.990Z,11.41
2022-11-16T19:31:13.140Z,11.44
2022-11-16T19:33:39.310Z,11.41
2022-11-16T19:36:05.455Z,11.39
2022-11-16T19:38:31.620Z,11.40
2022-11-16T19:40:57.791Z,11.41
2022-11-16T19:43:23.937Z,11.40
2022-11-16T19:45:50.062Z,11.41
2022-11-16T19:48:16.211Z,11.43
2022-11-16T19:50:42.335Z,11.43
2022-11-16T19:53:08.471Z,11.45
2022-11-16T19:55:34.571Z,11.44
2022-11-16T19:58:00.687Z,11.37
2022-11-16T20:00:26.805Z,11.38
2022-11-16T20:02:52.930Z,11.29
2022-11-16T20:05:19.124Z,11.19
2022-11-16T20:07:45.225Z,11.08
2022-11-16T20:10:11.339Z,10.96
2022-11-16T20:12:37.471Z,10.90
2022-11-16T20:15:03.602Z,10.87
2022-11-16T20:17:29.737Z,10.75
2022-11-16T20:19:55.914Z,10.65
2022-11-16T20:22:22.233Z,10.64
2022-11-16T20:24:48.400Z,10.64
2022-11-16T20:27:14.530Z,10.54
2022-11-16T20:29:40.664Z,10.53
2022-11-16T20:32:06.786Z,10.45
2022-11-16T20:34:32.938Z,10.38
2022-11-16T20:36:59.087Z,10.47
2022-11-16T20:39:25.249Z,10.58
2022-11-16T20:41:51.384Z,10.61
2022-11-16T20:44:17.510Z,10.60
2022-11-16T20:46:43.666Z,10.51
2022-11-16T20:49:09.797Z,10.46
2022-11-16T20:51:35.949Z,10.46
2022-11-16T20:54:02.089Z,10.41
2022-11-16T20:56:28.214Z,10.42
2022-11-16T20:58:54.350Z,10.43
2022-11-16T21:01:20.526Z,10.41
2022-11-16T21:03:46.714Z,10.38
2022-11-16T21:06:12.843Z,10.35
2022-11-16T21:08:38.964Z,10.40
2022-11-16T21:11:05.148Z,10.32
2022-11-16T21:13:31.378Z,10.33
2022-11-16T21:15:57.539Z,10.31
2022-11-16T21:18:29.376Z,10.26
2022-11-16T21:20:56.808Z,10.22
2022-11-16T21:23:22.941Z,10.22
2022-11-16T21:25:49.076Z,10.23
2022-11-16T21:28:15.223Z,10.33
2022-11-16T21:30:41.380Z,10.40
2022-11-16T21:33:07.539Z,10.41
2022-11-16T21:35:33.648Z,10.45
2022-11-16T21:37:59.784Z,10.45
2022-11-16T21:40:25.944Z,10.47
2022-11-16T21:42:52.092Z,10.51
2022-11-16T21:45:18.197Z,10.60
2022-11-16T21:47:44.352Z,10.59
2022-11-16T21:50:31.304Z,10.62
2022-11-16T21:52:56.609Z,10.63
2022-11-16T21:55:22.738Z,10.66
2022-11-16T21:57:48.861Z,10.66
2022-11-16T22:00:15.037Z,10.72
2022-11-16T22:02:41.183Z,10.78
2022-11-16T22:05:07.320Z,10.75
2022-11-16T22:07:33.492Z,10.72
2022-11-16T22:09:59.691Z,10.70
2022-11-16T22:12:25.806Z,10.71
2022-11-16T22:14:51.944Z,10.74
2022-11-16T22:17:18.101Z,10.74
2022-11-16T22:19:44.246Z,10.72
2022-11-16T22:22:10.390Z,10.76
2022-11-16T22:24:36.561Z,10.71
2022-11-16T22:27:02.757Z,10.74
2022-11-16T22:29:28.880Z,10.80
2022-11-16T22:31:55.022Z,10.81
2022-11-16T22:34:21.141Z,10.79
2022-11-16T22:36:47.254Z,10.77
2022-11-16T22:39:13.391Z,10.74
2022-11-16T22:41:39.534Z,10.79
2022-11-16T22:44:05.660Z,10.86
2022-11-16T22:46:31.774Z,10.83
2022-11-16T22:48:57.911Z,10.89
2022-11-16T22:51:24.042Z,10.98
2022-11-16T22:53:50.153Z,10.94
2022-11-16T22:56:16.285Z,10.90
2022-11-16T22:58:42.403Z,10.89
2022-11-16T23:01:08.558Z,10.92
2022-11-16T23:03:35.138Z,10.96
2022-11-16T23:06:01.795Z,10.94
2022-11-16T23:08:27.913Z,10.98
2022-11-16T23:10:54.051Z,10.92
2022-11-16T23:13:20.203Z,11.02
2022-11-16T23:15:46.318Z,11.00
2022-11-16T23:18:12.444Z,11.07
2022-11-16T23:20:38.575Z,11.03
2022-11-16T23:23:04.724Z,10.96
2022-11-16T23:25:30.867Z,10.87
2022-11-16T23:27:56.993Z,10.79
2022-11-16T23:30:23.101Z,10.65
2022-11-16T23:32:49.241Z,10.60
2022-11-16T23:35:15.359Z,10.51
2022-11-16T23:37:41.513Z,10.48
2022-11-16T23:40:07.640Z,10.47
2022-11-16T23:42:33.796Z,10.52
2022-11-16T23:44:59.913Z,10.49
2022-11-16T23:47:26.039Z,10.55
2022-11-16T23:49:52.191Z,10.49
2022-11-16T23:52:18.286Z,10.48
2022-11-16T23:54:44.416Z,10.43
2022-11-16T23:57:10.547Z,10.55
2022-11-16T23:59:36.682Z,10.58
